Bardstown, Kentucky
Current Conditions -  °F | °C
As of 12:58 PM on Tuesday 21 Oct 2014 (Local Time) from KFTK Reporting Station
Broken Clouds Broken Clouds  
Wind Chill: 15°   Ceiling: 5000
Heat Index: 15°   Visibility: 10mi
Dew Point:   Wind: 13mph
Humidity: 56%   Direction: 350°N
Pressure: 30.07"   Gusts: 18mph
Location:  37.81°N, 85.47°W
Report Text: KFTK 211658Z AUTO 35011G16KT 10SM FEW036 BKN050 15/07 A3007 RMK AO2 SLP184 T01540066
Loading
Personal Weather Stations






























Interactive Weather Map
Tropical Storm Tracking
New forecast layout! Learn more

10-Day Weather Forecast

Advertisements
Track Severe Weather on mobile